createdAt,value
2023-05-12T00:00:08.986Z,12.60
2023-05-12T00:02:43.309Z,12.60
2023-05-12T00:05:10.383Z,12.60
2023-05-12T00:07:37.663Z,12.50
2023-05-12T00:10:04.899Z,12.50
2023-05-12T00:12:32.285Z,12.50
2023-05-12T00:14:59.153Z,12.50
2023-05-12T00:17:27.888Z,12.50
2023-05-12T00:19:57.419Z,12.50
2023-05-12T00:22:24.355Z,12.50
2023-05-12T00:24:51.392Z,12.50
2023-05-12T00:27:18.573Z,12.40
2023-05-12T00:29:48.328Z,12.40
2023-05-12T00:32:17.182Z,12.40
2023-05-12T00:34:44.135Z,12.40
2023-05-12T00:37:11.446Z,12.40
2023-05-12T00:39:38.395Z,12.30
2023-05-12T00:42:05.758Z,12.30
2023-05-12T00:44:32.898Z,12.30
2023-05-12T00:47:00.197Z,12.40
2023-05-12T00:49:27.449Z,12.30
2023-05-12T00:51:55.911Z,12.40
2023-05-12T00:54:23.269Z,12.40
2023-05-12T00:56:50.178Z,12.40
2023-05-12T00:59:17.122Z,12.30
2023-05-12T01:01:45.050Z,12.30
2023-05-12T01:04:13.007Z,12.30
2023-05-12T01:07:03.518Z,12.20
2023-05-12T01:09:30.866Z,12.30
2023-05-12T01:11:59.300Z,12.20
2023-05-12T01:14:26.105Z,12.20
2023-05-12T01:16:59.756Z,12.20
2023-05-12T01:19:46.397Z,12.20
2023-05-12T01:22:15.259Z,12.20
2023-05-12T01:24:55.057Z,12.20
2023-05-12T01:27:25.797Z,12.20
2023-05-12T01:29:54.459Z,12.20
2023-05-12T01:32:23.580Z,12.20
2023-05-12T01:34:50.984Z,12.20
2023-05-12T01:37:18.701Z,12.20
2023-05-12T01:39:46.012Z,12.20
2023-05-12T01:42:18.187Z,12.20
2023-05-12T01:44:45.500Z,12.20
2023-05-12T01:47:12.310Z,12.20
2023-05-12T01:49:40.623Z,12.20
2023-05-12T01:52:12.131Z,12.20
2023-05-12T01:54:39.293Z,12.20
2023-05-12T01:57:06.537Z,12.20
2023-05-12T01:59:36.194Z,12.20
2023-05-12T02:02:05.203Z,12.20
2023-05-12T02:04:32.211Z,12.10
2023-05-12T02:07:01.833Z,12.20
2023-05-12T02:09:31.061Z,12.20
2023-05-12T02:12:02.632Z,12.20
2023-05-12T02:14:29.769Z,12.20
2023-05-12T02:16:56.974Z,12.20
2023-05-12T02:19:25.635Z,12.20
2023-05-12T02:21:55.755Z,12.20
2023-05-12T02:24:22.959Z,12.20
2023-05-12T02:26:49.906Z,12.20
2023-05-12T02:29:16.913Z,12.20
2023-05-12T02:31:44.229Z,12.20
2023-05-12T02:34:15.632Z,12.20
2023-05-12T02:36:43.084Z,12.20
2023-05-12T02:39:11.575Z,12.20
2023-05-12T02:41:44.613Z,12.20
2023-05-12T02:44:11.775Z,12.20
2023-05-12T02:46:38.965Z,12.10
2023-05-12T02:49:06.245Z,12.10
2023-05-12T02:51:33.151Z,12.10
2023-05-12T02:54:00.249Z,12.10
2023-05-12T02:56:27.187Z,12.10
2023-05-12T02:58:55.671Z,12.10
2023-05-12T03:01:22.666Z,12.10
2023-05-12T03:03:49.794Z,12.10
2023-05-12T03:06:17.547Z,12.10
2023-05-12T03:08:44.520Z,12.10
2023-05-12T03:11:11.471Z,12.10
2023-05-12T03:13:40.299Z,12.10
2023-05-12T03:16:07.370Z,12.10
2023-05-12T03:18:34.850Z,12.10
2023-05-12T03:21:01.824Z,12.00
2023-05-12T03:23:29.044Z,12.00
2023-05-12T03:25:56.108Z,12.00
2023-05-12T03:28:24.632Z,12.10
2023-05-12T03:30:51.780Z,12.00
2023-05-12T03:33:18.648Z,12.00
2023-05-12T03:35:48.354Z,12.00
2023-05-12T03:38:15.259Z,12.00
2023-05-12T03:40:42.232Z,12.00
2023-05-12T03:43:09.460Z,12.00
2023-05-12T03:45:36.556Z,12.10
2023-05-12T03:48:07.447Z,12.00
2023-05-12T03:50:34.508Z,12.00
2023-05-12T03:53:01.901Z,12.00
2023-05-12T03:55:28.908Z,12.00
2023-05-12T03:57:57.242Z,12.00
2023-05-12T04:00:24.561Z,11.90
2023-05-12T04:02:58.729Z,11.90
2023-05-12T04:05:31.753Z,11.90
2023-05-12T04:07:59.548Z,11.90
2023-05-12T04:10:26.328Z,11.90
2023-05-12T04:12:53.630Z,12.00
2023-05-12T04:15:21.206Z,12.00
2023-05-12T04:17:48.432Z,12.00
2023-05-12T04:20:15.372Z,12.00
2023-05-12T04:22:42.411Z,12.00
2023-05-12T04:25:13.773Z,12.00
2023-05-12T04:27:41.635Z,12.00
2023-05-12T04:30:09.093Z,12.00
2023-05-12T04:32:38.284Z,12.10
2023-05-12T04:35:06.652Z,12.10
2023-05-12T04:37:34.675Z,12.10
2023-05-12T04:40:01.714Z,12.10
2023-05-12T04:42:30.275Z,12.10
2023-05-12T04:44:58.356Z,12.20
2023-05-12T04:47:48.088Z,12.10
2023-05-12T04:50:15.637Z,12.20
2023-05-12T04:52:42.479Z,12.20
2023-05-12T04:55:12.533Z,12.20
2023-05-12T04:57:41.530Z,12.20
2023-05-12T05:00:10.910Z,12.30
2023-05-12T05:02:39.070Z,12.30
2023-05-12T05:05:06.632Z,12.30
2023-05-12T05:07:33.511Z,12.30
2023-05-12T05:10:01.763Z,12.40
2023-05-12T05:12:32.094Z,12.40
2023-05-12T05:14:59.167Z,12.40
2023-05-12T05:17:26.080Z,12.30
2023-05-12T05:19:58.367Z,12.40
2023-05-12T05:22:28.328Z,12.40
2023-05-12T05:24:55.666Z,12.40
2023-05-12T05:27:22.779Z,12.50
2023-05-12T05:29:50.080Z,12.50
2023-05-12T05:32:17.447Z,12.50
2023-05-12T05:34:44.962Z,12.60
2023-05-12T05:37:11.853Z,12.60
2023-05-12T05:39:38.994Z,12.70
2023-05-12T05:42:07.241Z,12.70
2023-05-12T05:44:35.018Z,12.70
2023-05-12T05:47:06.000Z,12.70
2023-05-12T05:49:33.063Z,12.80
2023-05-12T05:52:01.252Z,12.80
2023-05-12T05:54:28.756Z,12.80
2023-05-12T05:56:55.998Z,12.80
2023-05-12T05:59:23.060Z,12.90
2023-05-12T06:01:54.646Z,13.00
2023-05-12T06:04:21.685Z,13.00
2023-05-12T06:06:48.772Z,13.00
2023-05-12T06:09:16.023Z,13.00
2023-05-12T06:11:42.881Z,13.10
2023-05-12T06:14:09.665Z,13.10
2023-05-12T06:16:36.773Z,13.10
2023-05-12T06:19:04.164Z,13.10
2023-05-12T06:21:32.326Z,13.10
2023-05-12T06:23:59.432Z,13.30
2023-05-12T06:26:26.478Z,13.30
2023-05-12T06:28:53.320Z,13.40
2023-05-12T06:31:20.919Z,13.40
2023-05-12T06:33:48.113Z,13.50
2023-05-12T06:36:14.952Z,13.50
2023-05-12T06:38:42.676Z,13.50
2023-05-12T06:41:09.435Z,13.50
2023-05-12T06:43:36.357Z,13.60
2023-05-12T06:46:04.113Z,13.60
2023-05-12T06:48:30.949Z,13.70
2023-05-12T06:50:58.466Z,13.70
2023-05-12T06:53:30.627Z,13.70
2023-05-12T06:55:57.934Z,13.70
2023-05-12T06:58:24.933Z,13.80
2023-05-12T07:00:52.163Z,13.90
2023-05-12T07:03:19.500Z,13.90
2023-05-12T07:05:46.447Z,13.90
2023-05-12T07:08:13.506Z,14.00
2023-05-12T07:10:40.556Z,14.00
2023-05-12T07:13:07.545Z,14.10
2023-05-12T07:15:34.536Z,14.20
2023-05-12T07:18:04.197Z,14.20
2023-05-12T07:20:31.290Z,14.30
2023-05-12T07:22:58.234Z,14.40
2023-05-12T07:25:25.284Z,14.50
2023-05-12T07:27:52.298Z,14.60
2023-05-12T07:30:19.584Z,14.60
2023-05-12T07:32:46.798Z,14.80
2023-05-12T07:35:14.116Z,14.90
2023-05-12T07:37:41.641Z,15.00
2023-05-12T07:40:08.789Z,15.00
2023-05-12T07:42:36.606Z,15.10
2023-05-12T07:45:04.313Z,15.20
2023-05-12T07:47:31.194Z,15.20
2023-05-12T07:49:58.129Z,15.30
2023-05-12T07:52:25.096Z,15.40
2023-05-12T07:54:54.649Z,15.40
2023-05-12T07:57:21.939Z,15.60
2023-05-12T07:59:49.514Z,15.70
2023-05-12T08:02:17.449Z,15.90
2023-05-12T08:04:44.553Z,15.90
2023-05-12T08:07:11.665Z,16.00
2023-05-12T08:09:38.579Z,16.10
2023-05-12T08:12:05.966Z,16.10
2023-05-12T08:14:32.811Z,16.20
2023-05-12T08:16:59.754Z,16.30
2023-05-12T08:19:26.935Z,16.40
2023-05-12T08:21:54.056Z,16.60
2023-05-12T08:24:22.312Z,16.70
2023-05-12T08:26:49.443Z,16.70
2023-05-12T08:29:16.725Z,16.70
2023-05-12T08:31:44.049Z,16.80
2023-05-12T08:34:17.574Z,17.00
2023-05-12T08:36:44.627Z,17.10
2023-05-12T08:39:14.507Z,17.10
2023-05-12T08:42:03.491Z,17.30
2023-05-12T08:44:31.367Z,17.40
2023-05-12T08:47:00.121Z,17.40
2023-05-12T08:49:31.338Z,17.50
2023-05-12T08:52:01.536Z,17.70
2023-05-12T08:54:29.566Z,17.90
2023-05-12T08:59:33.302Z,18.30
2023-05-12T09:02:04.507Z,18.50
2023-05-12T09:04:33.132Z,18.50
2023-05-12T09:07:00.451Z,18.60
2023-05-12T09:09:29.804Z,18.80
2023-05-12T09:11:58.037Z,18.90
2023-05-12T09:14:26.268Z,19.00
2023-05-12T09:17:00.377Z,19.00
2023-05-12T09:19:27.903Z,19.00
2023-05-12T09:21:55.202Z,19.10
2023-05-12T09:24:37.487Z,19.30
2023-05-12T09:27:05.231Z,19.40
2023-05-12T09:29:45.027Z,19.60
2023-05-12T09:32:14.939Z,19.60
2023-05-12T09:34:43.584Z,19.50
2023-05-12T09:37:10.369Z,19.30
2023-05-12T09:39:37.361Z,19.10
2023-05-12T09:42:04.995Z,19.00
2023-05-12T09:44:32.411Z,19.10
2023-05-12T09:47:10.073Z,19.20
2023-05-12T09:49:37.145Z,19.50
2023-05-12T09:52:05.022Z,19.70
2023-05-12T09:54:33.594Z,19.90
2023-05-12T09:57:05.177Z,19.90
2023-05-12T09:59:34.904Z,20.20
2023-05-12T10:02:05.400Z,20.30
2023-05-12T10:04:57.205Z,20.30
2023-05-12T10:07:27.776Z,20.40
2023-05-12T10:09:58.694Z,20.40
2023-05-12T10:12:25.613Z,20.50
2023-05-12T10:14:53.583Z,20.60
2023-05-12T10:17:20.884Z,20.70
2023-05-12T10:19:49.156Z,20.80
2023-05-12T10:22:19.588Z,20.90
2023-05-12T10:24:47.480Z,21.10
2023-05-12T10:27:17.181Z,21.20
2023-05-12T10:29:45.169Z,21.30
2023-05-12T10:32:12.251Z,21.30
2023-05-12T10:34:42.066Z,21.40
2023-05-12T10:37:11.363Z,21.80
2023-05-12T10:39:47.667Z,22.30
2023-05-12T10:42:21.296Z,22.70
2023-05-12T10:44:51.379Z,23.00
2023-05-12T10:47:19.031Z,23.30
2023-05-12T10:49:46.398Z,23.60
2023-05-12T10:52:19.451Z,23.60
2023-05-12T10:54:47.588Z,23.50
2023-05-12T10:57:24.920Z,23.80
2023-05-12T10:59:57.581Z,23.90
2023-05-12T11:02:32.066Z,24.00
2023-05-12T11:05:07.333Z,24.10
2023-05-12T11:07:35.492Z,24.10
2023-05-12T11:10:05.278Z,24.30
2023-05-12T11:12:35.342Z,24.40
2023-05-12T11:15:03.819Z,24.40
2023-05-12T11:17:30.853Z,24.60
2023-05-12T11:19:58.565Z,24.80
2023-05-12T11:22:25.992Z,25.00
2023-05-12T11:24:53.295Z,24.90
2023-05-12T11:27:22.823Z,24.90
2023-05-12T11:30:01.344Z,24.60
2023-05-12T11:32:29.474Z,24.40
2023-05-12T11:34:56.907Z,24.20
2023-05-12T11:37:23.739Z,24.00
2023-05-12T11:39:52.880Z,23.90
2023-05-12T11:42:21.576Z,24.10
2023-05-12T11:44:50.495Z,24.00
2023-05-12T11:47:19.611Z,24.20
2023-05-12T11:49:49.236Z,24.20
2023-05-12T11:52:20.080Z,24.40
2023-05-12T11:54:53.828Z,24.30
2023-05-12T11:57:30.584Z,24.30
2023-05-12T12:00:15.773Z,24.20
2023-05-12T12:02:43.739Z,24.10
2023-05-12T12:05:21.909Z,24.00
2023-05-12T12:07:48.961Z,24.20
2023-05-12T12:10:19.456Z,24.30
2023-05-12T12:12:46.406Z,24.30
2023-05-12T12:15:13.391Z,24.30
2023-05-12T12:17:40.696Z,24.00
2023-05-12T12:20:09.104Z,24.20
2023-05-12T12:22:36.627Z,24.40
2023-05-12T12:25:04.023Z,24.40
2023-05-12T12:27:31.127Z,24.40
2023-05-12T12:29:57.988Z,24.40
2023-05-12T12:32:24.869Z,24.50
2023-05-12T12:34:52.702Z,24.70
2023-05-12T12:37:19.469Z,24.80
2023-05-12T12:39:47.807Z,25.00
2023-05-12T12:42:15.518Z,25.00
2023-05-12T12:44:42.616Z,25.10
2023-05-12T12:47:09.689Z,25.30
2023-05-12T12:49:36.639Z,25.40
2023-05-12T12:52:03.449Z,25.70
2023-05-12T12:54:30.236Z,26.00
2023-05-12T12:56:57.193Z,26.00
2023-05-12T12:59:24.116Z,25.90
2023-05-12T13:01:50.963Z,25.90
2023-05-12T13:04:22.546Z,25.70
2023-05-12T13:06:51.603Z,25.60
2023-05-12T13:09:19.940Z,25.30
2023-05-12T13:11:50.761Z,25.10
2023-05-12T13:14:17.577Z,24.90
2023-05-12T13:16:45.062Z,24.80
2023-05-12T13:19:11.977Z,25.00
2023-05-12T13:21:38.983Z,24.80
2023-05-12T13:24:06.979Z,24.90
2023-05-12T13:26:34.012Z,24.80
2023-05-12T13:29:00.954Z,24.80
2023-05-12T13:31:27.808Z,24.70
2023-05-12T13:33:55.034Z,24.50
2023-05-12T13:36:21.973Z,24.50
2023-05-12T13:38:48.835Z,24.50
2023-05-12T13:41:15.776Z,24.50
2023-05-12T13:43:44.400Z,24.40
2023-05-12T13:46:11.388Z,24.20
2023-05-12T13:48:38.227Z,24.20
2023-05-12T13:51:06.890Z,24.20
2023-05-12T13:53:33.709Z,24.10
2023-05-12T13:56:17.434Z,24.20
2023-05-12T13:58:44.521Z,24.20
2023-05-12T14:01:13.476Z,24.20
2023-05-12T14:03:41.993Z,24.30
2023-05-12T14:06:09.565Z,24.40
2023-05-12T14:08:36.600Z,24.50
2023-05-12T14:11:03.888Z,24.60
2023-05-12T14:13:31.274Z,24.60
2023-05-12T14:15:58.636Z,24.60
2023-05-12T14:18:25.929Z,24.70
2023-05-12T14:20:52.943Z,24.70
2023-05-12T14:23:19.912Z,24.90
2023-05-12T14:25:46.692Z,25.00
2023-05-12T14:28:13.748Z,25.20
2023-05-12T14:30:40.981Z,25.30
2023-05-12T14:33:10.398Z,25.50
2023-05-12T14:35:37.365Z,25.50
2023-05-12T14:38:04.516Z,25.80
2023-05-12T14:40:31.568Z,26.20
2023-05-12T14:42:58.517Z,26.50
2023-05-12T14:45:26.495Z,26.30
2023-05-12T14:47:53.458Z,26.10
2023-05-12T14:50:20.753Z,26.00
2023-05-12T14:52:47.725Z,25.90
2023-05-12T14:55:15.007Z,25.90
2023-05-12T14:57:42.334Z,25.80
2023-05-12T15:00:11.647Z,25.70
2023-05-12T15:02:39.803Z,25.80
2023-05-12T15:05:08.443Z,25.80
2023-05-12T15:07:35.797Z,25.40
2023-05-12T15:10:02.889Z,25.10
2023-05-12T15:12:29.743Z,25.00
2023-05-12T15:14:56.712Z,24.80
2023-05-12T15:17:23.629Z,24.60
2023-05-12T15:19:50.520Z,24.50
2023-05-12T15:22:17.310Z,24.40
2023-05-12T15:24:44.374Z,24.30
2023-05-12T15:27:11.125Z,24.20
2023-05-12T15:29:39.144Z,24.00
2023-05-12T15:32:09.138Z,23.90
2023-05-12T15:34:36.024Z,23.80
2023-05-12T15:37:02.890Z,23.90
2023-05-12T15:39:29.849Z,23.90
2023-05-12T15:41:56.673Z,24.10
2023-05-12T15:44:26.428Z,24.10
2023-05-12T15:46:53.386Z,24.20
2023-05-12T15:49:20.692Z,24.20
2023-05-12T15:51:55.369Z,24.00
2023-05-12T15:54:22.387Z,23.50
2023-05-12T15:56:50.711Z,22.90
2023-05-12T15:59:18.026Z,22.20
2023-05-12T16:01:45.369Z,21.70
2023-05-12T16:04:13.136Z,21.40
2023-05-12T16:06:40.608Z,21.10
2023-05-12T16:09:07.615Z,20.90
2023-05-12T16:11:34.667Z,20.80
2023-05-12T16:14:02.776Z,20.70
2023-05-12T16:16:30.925Z,20.60
2023-05-12T16:18:58.101Z,20.70
2023-05-12T16:21:25.529Z,20.60
2023-05-12T16:23:52.848Z,20.70
2023-05-12T16:26:19.754Z,20.60
2023-05-12T16:28:46.942Z,20.60
2023-05-12T16:31:17.874Z,20.60
2023-05-12T16:33:45.150Z,20.60
2023-05-12T16:36:12.990Z,20.60
2023-05-12T16:38:39.869Z,20.60
2023-05-12T16:41:06.666Z,20.60
2023-05-12T16:43:33.596Z,20.50
2023-05-12T16:46:01.747Z,20.40
2023-05-12T16:48:34.035Z,20.40
2023-05-12T16:51:06.056Z,20.50
2023-05-12T16:53:34.006Z,20.60
2023-05-12T16:56:02.511Z,20.50
2023-05-12T16:58:31.427Z,20.60
2023-05-12T17:01:02.347Z,20.40
2023-05-12T17:03:29.965Z,20.40
2023-05-12T17:05:57.024Z,20.30
2023-05-12T17:08:24.626Z,20.20
2023-05-12T17:10:54.290Z,20.10
2023-05-12T17:13:21.514Z,20.10
2023-05-12T17:15:48.337Z,20.00
2023-05-12T17:18:15.257Z,20.00
2023-05-12T17:20:42.007Z,20.00
2023-05-12T17:23:09.249Z,20.00
2023-05-12T17:25:42.594Z,20.00
2023-05-12T17:28:19.208Z,20.00
2023-05-12T17:30:54.830Z,20.10
2023-05-12T17:33:23.979Z,20.10
2023-05-12T17:36:03.811Z,20.20
2023-05-12T17:38:38.528Z,20.30
2023-05-12T17:41:05.306Z,20.40
2023-05-12T17:43:32.441Z,20.40
2023-05-12T17:46:00.500Z,20.50
2023-05-12T17:48:27.549Z,20.50
2023-05-12T17:50:54.393Z,20.50
2023-05-12T17:53:22.718Z,20.50
2023-05-12T17:55:49.757Z,20.40
2023-05-12T17:58:16.671Z,20.40
2023-05-12T18:00:43.571Z,20.50
2023-05-12T18:03:11.597Z,20.40
2023-05-12T18:05:39.502Z,20.40
2023-05-12T18:08:07.449Z,20.50
2023-05-12T18:10:35.867Z,20.40
2023-05-12T18:13:02.946Z,20.50
2023-05-12T18:15:36.076Z,20.50
2023-05-12T18:18:04.796Z,20.50
2023-05-12T18:20:32.120Z,20.60
2023-05-12T18:22:59.057Z,20.60
2023-05-12T18:25:26.023Z,20.60
2023-05-12T18:27:53.070Z,20.50
2023-05-12T18:30:20.199Z,20.40
2023-05-12T18:32:47.131Z,20.30
2023-05-12T18:35:14.149Z,20.20
2023-05-12T18:37:41.031Z,20.10
2023-05-12T18:40:08.602Z,20.00
2023-05-12T18:42:36.232Z,19.90
2023-05-12T18:45:03.623Z,19.80
2023-05-12T18:47:30.784Z,19.70
2023-05-12T18:49:57.752Z,19.70
2023-05-12T18:52:24.655Z,19.60
2023-05-12T18:54:51.652Z,19.50
2023-05-12T18:57:18.506Z,19.50
2023-05-12T18:59:45.561Z,19.40
2023-05-12T19:02:12.558Z,19.20
2023-05-12T19:04:39.578Z,19.20
2023-05-12T19:07:09.866Z,19.10
2023-05-12T19:09:37.693Z,19.00
2023-05-12T19:12:06.148Z,18.90
2023-05-12T19:14:33.226Z,18.90
2023-05-12T19:17:00.250Z,18.80
2023-05-12T19:19:27.368Z,18.70
2023-05-12T19:21:54.465Z,18.60
2023-05-12T19:24:25.912Z,18.50
2023-05-12T19:26:53.226Z,18.50
2023-05-12T19:29:20.583Z,18.30
2023-05-12T19:31:47.775Z,18.30
2023-05-12T19:34:14.935Z,18.30
2023-05-12T19:36:42.178Z,18.20
2023-05-12T19:39:09.111Z,18.10
2023-05-12T19:41:36.196Z,18.10
2023-05-12T19:44:03.051Z,18.00
2023-05-12T19:46:30.030Z,18.00
2023-05-12T19:48:57.421Z,18.00
2023-05-12T19:51:24.564Z,17.90
2023-05-12T19:53:51.345Z,17.90
2023-05-12T19:56:18.928Z,17.90
2023-05-12T19:58:56.426Z,17.80
2023-05-12T20:01:24.758Z,17.70
2023-05-12T20:03:53.220Z,17.70
2023-05-12T20:06:20.404Z,17.70
2023-05-12T20:08:47.201Z,17.60
2023-05-12T20:11:13.913Z,17.50
2023-05-12T20:13:40.880Z,17.40
2023-05-12T20:16:07.863Z,17.40
2023-05-12T20:18:35.013Z,17.30
2023-05-12T20:21:01.899Z,17.30
2023-05-12T20:23:28.765Z,17.30
2023-05-12T20:25:55.865Z,17.20
2023-05-12T20:28:23.875Z,17.20
2023-05-12T20:30:50.831Z,17.10
2023-05-12T20:33:17.737Z,17.10
2023-05-12T20:35:44.598Z,17.00
2023-05-12T20:38:11.501Z,17.00
2023-05-12T20:40:40.517Z,17.00
2023-05-12T20:43:08.917Z,17.00
2023-05-12T20:45:36.930Z,16.90
2023-05-12T20:48:04.535Z,16.80
2023-05-12T20:50:31.676Z,16.80
2023-05-12T20:52:59.073Z,16.70
2023-05-12T20:55:26.548Z,16.70
2023-05-12T20:57:57.064Z,16.60
2023-05-12T21:00:24.375Z,16.70
2023-05-12T21:02:52.500Z,16.70
2023-05-12T21:05:20.703Z,16.70
2023-05-12T21:07:48.049Z,16.70
2023-05-12T21:10:14.869Z,16.60
2023-05-12T21:12:41.764Z,16.60
2023-05-12T21:15:10.695Z,16.60
2023-05-12T21:17:39.242Z,16.50
2023-05-12T21:20:10.949Z,16.50
2023-05-12T21:22:38.275Z,16.40
2023-05-12T21:25:05.574Z,16.40
2023-05-12T21:27:32.628Z,16.40
2023-05-12T21:29:59.461Z,16.30
2023-05-12T21:32:26.304Z,16.30
2023-05-12T21:34:53.843Z,16.20
2023-05-12T21:37:20.941Z,16.20
2023-05-12T21:39:47.749Z,16.20
2023-05-12T21:42:14.688Z,16.20
2023-05-12T21:44:41.680Z,16.20
2023-05-12T21:47:08.668Z,16.10
2023-05-12T21:49:35.494Z,16.20
2023-05-12T21:52:02.392Z,16.10
2023-05-12T21:54:33.137Z,16.00
2023-05-12T21:57:00.851Z,16.00
2023-05-12T21:59:29.139Z,16.00
2023-05-12T22:01:56.260Z,16.00
2023-05-12T22:04:23.348Z,15.90
2023-05-12T22:06:50.596Z,15.90
2023-05-12T22:09:17.579Z,15.90
2023-05-12T22:11:45.035Z,15.90
2023-05-12T22:14:11.806Z,15.80
2023-05-12T22:16:42.392Z,15.80
2023-05-12T22:19:09.825Z,15.80
2023-05-12T22:21:36.886Z,15.80
2023-05-12T22:24:03.869Z,15.80
2023-05-12T22:26:33.280Z,15.80
2023-05-12T22:29:00.215Z,15.90
2023-05-12T22:31:27.139Z,15.80
2023-05-12T22:33:54.091Z,15.80
2023-05-12T22:36:21.054Z,15.80
2023-05-12T22:38:47.883Z,15.80
2023-05-12T22:41:14.737Z,15.80
2023-05-12T22:43:41.527Z,15.80
2023-05-12T22:46:14.107Z,15.80
2023-05-12T22:48:41.351Z,15.80
2023-05-12T22:51:08.353Z,15.80
2023-05-12T22:53:36.238Z,15.80
2023-05-12T22:56:03.812Z,15.80
2023-05-12T22:58:30.788Z,15.80
2023-05-12T23:00:57.739Z,15.80
2023-05-12T23:03:24.649Z,15.90
2023-05-12T23:05:51.551Z,15.90
2023-05-12T23:08:18.307Z,15.90
2023-05-12T23:10:45.037Z,15.90
2023-05-12T23:13:11.789Z,15.80
2023-05-12T23:15:38.649Z,15.80
2023-05-12T23:18:05.540Z,15.80
2023-05-12T23:20:32.495Z,15.80
2023-05-12T23:22:59.409Z,15.80
2023-05-12T23:25:26.436Z,15.80
2023-05-12T23:27:53.209Z,15.70
2023-05-12T23:30:20.264Z,15.70
2023-05-12T23:32:50.314Z,15.70
2023-05-12T23:35:17.325Z,15.60
2023-05-12T23:37:44.183Z,15.60
2023-05-12T23:40:11.342Z,15.60
2023-05-12T23:42:38.185Z,15.60
2023-05-12T23:45:06.466Z,15.50
2023-05-12T23:47:33.392Z,15.50
2023-05-12T23:50:00.384Z,15.50
2023-05-12T23:52:27.272Z,15.50
2023-05-12T23:54:54.206Z,15.50
2023-05-12T23:57:21.157Z,15.40
2023-05-12T23:59:47.974Z,15.40
